createdAt,value
2022-08-11T00:02:27.300Z,22.32
2022-08-11T00:04:58.038Z,22.28
2022-08-11T00:07:27.262Z,22.23
2022-08-11T00:09:56.056Z,22.20
2022-08-11T00:12:23.826Z,22.17
2022-08-11T00:14:58.439Z,22.13
2022-08-11T00:17:29.845Z,22.09
2022-08-11T00:20:14.007Z,22.05
2022-08-11T00:22:46.436Z,22.02
2022-08-11T00:25:16.246Z,21.98
2022-08-11T00:27:44.275Z,21.90
2022-08-11T00:30:15.571Z,21.85
2022-08-11T00:32:46.442Z,21.80
2022-08-11T00:35:53.752Z,21.78
2022-08-11T00:38:07.448Z,21.74
2022-08-11T00:40:43.348Z,21.72
2022-08-11T00:43:21.953Z,21.68
2022-08-11T00:46:11.547Z,21.63
2022-08-11T00:48:49.834Z,21.56
2022-08-11T00:51:26.314Z,21.52
2022-08-11T00:54:33.208Z,21.46
2022-08-11T00:57:37.218Z,21.42
2022-08-11T01:00:26.823Z,21.35
2022-08-11T01:03:19.216Z,21.29
2022-08-11T01:06:03.884Z,21.26
2022-08-11T01:09:10.450Z,21.22
2022-08-11T01:12:27.777Z,21.20
2022-08-11T01:15:25.216Z,21.16
2022-08-11T01:18:22.941Z,21.12
2022-08-11T01:21:33.538Z,21.08
2022-08-11T01:24:36.362Z,21.02
2022-08-11T01:27:33.735Z,20.97
2022-08-11T01:30:39.259Z,20.92
2022-08-11T01:33:51.473Z,20.88
2022-08-11T01:36:42.978Z,20.85
2022-08-11T01:39:49.934Z,20.81
2022-08-11T01:43:06.719Z,20.74
2022-08-11T01:45:43.862Z,20.68
2022-08-11T01:48:21.733Z,20.66
2022-08-11T01:51:17.526Z,20.60
2022-08-11T01:54:04.066Z,20.56
2022-08-11T01:56:47.647Z,20.53
2022-08-11T01:59:19.609Z,20.50
2022-08-11T02:02:02.543Z,20.47
2022-08-11T02:04:35.584Z,20.43
2022-08-11T02:07:10.941Z,20.40
2022-08-11T02:09:55.374Z,20.37
2022-08-11T02:12:37.793Z,20.33
2022-08-11T02:15:13.675Z,20.33
2022-08-11T02:17:54.899Z,20.29
2022-08-11T02:20:44.773Z,20.25
2022-08-11T02:24:05.789Z,20.22
2022-08-11T02:26:36.593Z,20.19
2022-08-11T02:29:12.544Z,20.17
2022-08-11T02:32:25.652Z,20.14
2022-08-11T02:35:02.924Z,20.10
2022-08-11T02:37:43.662Z,20.09
2022-08-11T02:40:20.915Z,20.05
2022-08-11T02:43:05.442Z,20.01
2022-08-11T02:45:46.230Z,19.96
2022-08-11T02:48:43.452Z,19.94
2022-08-11T02:51:22.089Z,19.94
2022-08-11T02:53:58.025Z,19.91
2022-08-11T02:56:38.739Z,19.87
2022-08-11T02:59:33.706Z,19.84
2022-08-11T03:02:11.827Z,19.80
2022-08-11T03:04:53.140Z,19.77
2022-08-11T03:07:28.796Z,19.75
2022-08-11T03:10:06.980Z,19.73
2022-08-11T03:13:03.630Z,19.70
2022-08-11T03:16:00.912Z,19.66
2022-08-11T03:18:35.738Z,19.64
2022-08-11T03:21:08.900Z,19.62
2022-08-11T03:23:42.739Z,19.57
2022-08-11T03:26:24.237Z,19.52
2022-08-11T03:29:01.206Z,19.49
2022-08-11T03:31:35.627Z,19.45
2022-08-11T03:34:07.836Z,19.44
2022-08-11T03:37:46.583Z,19.41
2022-08-11T03:40:52.265Z,19.39
2022-08-11T03:43:35.616Z,19.38
2022-08-11T03:46:11.546Z,19.36
2022-08-11T03:48:48.939Z,19.32
2022-08-11T03:51:23.448Z,19.29
2022-08-11T03:54:09.584Z,19.27
2022-08-11T03:57:09.560Z,19.27
2022-08-11T04:00:03.043Z,19.24
2022-08-11T04:03:23.944Z,19.22
2022-08-11T04:06:35.854Z,19.21
2022-08-11T04:09:48.556Z,19.23
2022-08-11T04:12:44.234Z,19.24
2022-08-11T04:15:56.182Z,19.23
2022-08-11T04:19:13.395Z,19.20
2022-08-11T04:22:17.813Z,19.19
2022-08-11T04:25:18.325Z,19.19
2022-08-11T04:28:28.708Z,19.19
2022-08-11T04:31:10.182Z,19.20
2022-08-11T04:33:56.587Z,19.19
2022-08-11T04:37:00.524Z,19.18
2022-08-11T04:39:46.000Z,19.21
2022-08-11T04:43:19.740Z,19.21
2022-08-11T04:46:13.417Z,19.23
2022-08-11T04:49:38.754Z,19.26
2022-08-11T04:52:53.085Z,19.30
2022-08-11T04:56:20.425Z,19.34
2022-08-11T04:59:27.288Z,19.38
2022-08-11T05:02:17.174Z,19.43
2022-08-11T05:05:16.589Z,19.46
2022-08-11T05:08:08.840Z,19.49
2022-08-11T05:11:02.457Z,19.54
2022-08-11T05:13:53.083Z,19.56
2022-08-11T05:16:49.335Z,19.58
2022-08-11T05:19:36.750Z,19.60
2022-08-11T05:22:27.628Z,19.65
2022-08-11T05:26:44.552Z,19.71
2022-08-11T05:28:29.841Z,19.77
2022-08-11T05:31:21.673Z,19.83
2022-08-11T05:34:10.623Z,19.88
2022-08-11T05:36:46.081Z,19.95
2022-08-11T05:39:36.801Z,20.01
2022-08-11T05:42:30.055Z,20.05
2022-08-11T05:45:22.879Z,20.13
2022-08-11T05:48:10.540Z,20.18
2022-08-11T05:50:56.295Z,20.25
2022-08-11T05:53:45.847Z,20.37
2022-08-11T05:56:18.695Z,20.56
2022-08-11T05:58:50.268Z,20.75
2022-08-11T06:01:25.594Z,20.94
2022-08-11T06:04:15.808Z,21.15
2022-08-11T06:06:56.675Z,21.39
2022-08-11T06:09:33.934Z,21.63
2022-08-11T06:12:05.679Z,21.87
2022-08-11T06:14:34.923Z,22.10
2022-08-11T06:17:06.617Z,22.31
2022-08-11T06:19:39.758Z,22.50
2022-08-11T06:22:09.407Z,22.82
2022-08-11T06:24:41.094Z,23.11
2022-08-11T06:27:12.855Z,23.39
2022-08-11T06:29:54.839Z,23.84
2022-08-11T06:32:27.087Z,24.31
2022-08-11T06:35:07.195Z,24.73
2022-08-11T06:37:45.589Z,25.46
2022-08-11T06:40:23.145Z,26.22
2022-08-11T06:42:55.974Z,26.92
2022-08-11T06:45:31.848Z,27.50
2022-08-11T06:48:02.892Z,28.00
2022-08-11T06:50:50.064Z,28.26
2022-08-11T06:53:20.299Z,28.61
2022-08-11T06:56:08.350Z,28.85
2022-08-11T06:58:55.699Z,29.04
2022-08-11T07:01:37.477Z,29.05
2022-08-11T07:04:09.455Z,29.07
2022-08-11T07:07:12.208Z,28.97
2022-08-11T07:10:31.970Z,28.92
2022-08-11T07:13:44.513Z,28.74
2022-08-11T07:16:12.296Z,28.83
2022-08-11T07:19:00.123Z,28.93
2022-08-11T07:22:01.951Z,28.99
2022-08-11T07:25:02.645Z,29.12
2022-08-11T07:28:07.942Z,29.37
2022-08-11T07:30:40.086Z,29.67
2022-08-11T07:33:09.640Z,29.89
2022-08-11T07:35:40.804Z,30.09
2022-08-11T07:38:12.641Z,30.60
2022-08-11T07:40:47.219Z,31.19
2022-08-11T07:43:18.523Z,31.81
2022-08-11T07:46:06.199Z,32.26
2022-08-11T07:48:53.785Z,32.97
2022-08-11T07:51:39.639Z,33.39
2022-08-11T07:54:16.609Z,34.21
2022-08-11T07:56:54.841Z,34.92
2022-08-11T08:00:00.267Z,35.41
2022-08-11T08:02:58.351Z,35.71
2022-08-11T08:05:44.483Z,35.95
2022-08-11T08:08:30.197Z,36.31
2022-08-11T08:11:16.303Z,36.45
2022-08-11T08:14:04.433Z,36.55
2022-08-11T08:16:50.134Z,36.40
2022-08-11T08:19:21.358Z,36.39
2022-08-11T08:21:49.887Z,36.95
2022-08-11T08:24:20.874Z,37.33
2022-08-11T08:26:59.543Z,37.46
2022-08-11T08:29:49.714Z,37.62
2022-08-11T08:32:18.565Z,38.03
2022-08-11T08:34:47.139Z,38.42
2022-08-11T08:37:45.948Z,38.84
2022-08-11T08:40:03.634Z,38.80
2022-08-11T08:42:34.251Z,39.22
2022-08-11T08:45:07.043Z,39.86
2022-08-11T08:47:43.116Z,40.35
2022-08-11T08:50:16.839Z,40.68
2022-08-11T08:52:51.494Z,40.87
2022-08-11T08:55:21.577Z,41.11
2022-08-11T08:57:51.312Z,41.23
2022-08-11T09:00:23.687Z,41.63
2022-08-11T09:02:52.769Z,41.68
2022-08-11T09:05:21.356Z,42.06
2022-08-11T09:07:57.687Z,41.94
2022-08-11T09:10:27.072Z,41.96
2022-08-11T09:12:55.195Z,41.62
2022-08-11T09:15:26.116Z,41.00
2022-08-11T09:17:58.320Z,40.76
2022-08-11T09:20:29.330Z,40.96
2022-08-11T09:26:30.592Z,41.34
2022-08-11T09:29:00.546Z,41.49
2022-08-11T09:31:39.039Z,41.35
2022-08-11T09:34:09.400Z,41.16
2022-08-11T09:36:55.235Z,41.15
2022-08-11T09:39:40.807Z,41.13
2022-08-11T09:42:11.248Z,41.12
2022-08-11T09:44:48.992Z,41.17
2022-08-11T09:47:25.288Z,40.50
2022-08-11T09:49:58.219Z,40.57
2022-08-11T09:52:25.962Z,40.70
2022-08-11T09:54:56.449Z,40.83
2022-08-11T09:57:46.109Z,40.75
2022-08-11T10:00:16.109Z,40.23
2022-08-11T10:02:48.398Z,40.15
2022-08-11T10:05:37.760Z,40.29
2022-08-11T10:08:06.516Z,40.32
2022-08-11T10:10:42.614Z,40.22
2022-08-11T10:13:44.023Z,40.52
2022-08-11T10:16:15.889Z,40.64
2022-08-11T10:18:52.558Z,40.72
2022-08-11T10:21:28.469Z,40.95
2022-08-11T10:24:15.021Z,41.08
2022-08-11T10:26:54.461Z,41.08
2022-08-11T10:29:45.128Z,40.82
2022-08-11T10:32:59.408Z,40.53
2022-08-11T10:35:27.051Z,40.60
2022-08-11T10:38:16.094Z,40.41
2022-08-11T10:40:47.182Z,40.79
2022-08-11T10:44:02.556Z,40.94
2022-08-11T10:46:29.753Z,41.16
2022-08-11T10:48:59.575Z,41.49
2022-08-11T10:51:50.736Z,41.67
2022-08-11T10:54:40.026Z,41.88
2022-08-11T10:57:25.720Z,41.94
2022-08-11T10:59:57.738Z,41.15
2022-08-11T11:02:27.256Z,41.18
2022-08-11T11:05:03.336Z,41.14
2022-08-11T11:07:44.345Z,40.58
2022-08-11T11:10:12.411Z,40.38
2022-08-11T11:13:00.562Z,39.94
2022-08-11T11:15:45.401Z,39.41
2022-08-11T11:18:20.288Z,39.74
2022-08-11T11:20:52.749Z,39.69
2022-08-11T11:23:26.298Z,39.57
2022-08-11T11:26:14.887Z,39.52
2022-08-11T11:29:04.177Z,39.32
2022-08-11T11:31:50.497Z,38.90
2022-08-11T11:34:52.780Z,39.18
2022-08-11T11:37:23.648Z,39.43
2022-08-11T11:39:52.346Z,38.88
2022-08-11T11:42:21.711Z,38.79
2022-08-11T11:44:51.411Z,38.22
2022-08-11T11:47:23.930Z,37.91
2022-08-11T11:49:51.887Z,38.19
2022-08-11T11:52:21.979Z,38.07
2022-08-11T11:54:53.419Z,38.06
2022-08-11T11:57:40.688Z,38.28
2022-08-11T12:00:33.155Z,38.34
2022-08-11T12:03:07.933Z,38.61
2022-08-11T12:05:37.436Z,38.95
2022-08-11T12:08:16.083Z,39.35
2022-08-11T12:10:48.786Z,39.48
2022-08-11T12:13:36.072Z,39.36
2022-08-11T12:16:33.573Z,39.49
2022-08-11T12:18:57.587Z,39.57
2022-08-11T12:21:27.572Z,39.58
2022-08-11T12:24:15.307Z,39.57
2022-08-11T12:27:15.997Z,39.64
2022-08-11T12:29:52.781Z,39.56
2022-08-11T12:32:24.332Z,38.72
2022-08-11T12:34:57.722Z,38.35
2022-08-11T12:37:31.889Z,38.26
2022-08-11T12:40:42.600Z,38.31
2022-08-11T12:43:37.876Z,38.21
2022-08-11T12:46:09.202Z,38.01
2022-08-11T12:49:08.610Z,37.77
2022-08-11T12:52:11.927Z,37.77
2022-08-11T12:54:52.818Z,37.85
2022-08-11T12:57:44.345Z,37.85
2022-08-11T13:00:30.553Z,37.43
2022-08-11T13:03:16.682Z,37.34
2022-08-11T13:05:45.833Z,37.38
2022-08-11T13:08:15.753Z,37.13
2022-08-11T13:11:01.740Z,36.80
2022-08-11T13:13:52.274Z,36.55
2022-08-11T13:16:20.540Z,36.45
2022-08-11T13:18:48.689Z,36.50
2022-08-11T13:21:20.316Z,36.50
2022-08-11T13:23:59.762Z,36.45
2022-08-11T13:26:43.656Z,36.30
2022-08-11T13:29:17.765Z,36.10
2022-08-11T13:31:46.599Z,35.95
2022-08-11T13:34:15.642Z,35.74
2022-08-11T13:36:44.687Z,35.57
2022-08-11T13:39:14.441Z,35.48
2022-08-11T13:41:44.684Z,35.40
2022-08-11T13:44:16.784Z,35.23
2022-08-11T13:46:47.594Z,35.04
2022-08-11T13:49:22.002Z,34.86
2022-08-11T13:51:50.498Z,34.69
2022-08-11T13:54:22.865Z,34.52
2022-08-11T13:56:53.842Z,34.20
2022-08-11T13:59:24.155Z,33.79
2022-08-11T14:02:22.551Z,33.53
2022-08-11T14:04:54.629Z,33.13
2022-08-11T14:07:25.917Z,32.86
2022-08-11T14:09:59.134Z,32.84
2022-08-11T14:12:46.570Z,32.80
2022-08-11T14:15:20.069Z,32.76
2022-08-11T14:17:53.120Z,32.83
2022-08-11T14:20:39.811Z,32.89
2022-08-11T14:23:11.453Z,32.94
2022-08-11T14:26:03.622Z,32.95
2022-08-11T14:28:38.850Z,32.94
2022-08-11T14:31:09.955Z,32.93
2022-08-11T14:33:59.321Z,32.96
2022-08-11T14:36:28.656Z,32.92
2022-08-11T14:38:56.824Z,32.90
2022-08-11T14:42:07.417Z,32.88
2022-08-11T14:44:54.408Z,32.77
2022-08-11T14:47:25.398Z,32.74
2022-08-11T14:50:10.458Z,32.70
2022-08-11T14:52:44.335Z,32.66
2022-08-11T14:55:30.719Z,32.66
2022-08-11T14:58:02.022Z,32.68
2022-08-11T15:00:30.767Z,32.65
2022-08-11T15:03:11.711Z,32.59
2022-08-11T15:05:55.721Z,32.44
2022-08-11T15:08:42.193Z,32.39
2022-08-11T15:11:32.217Z,32.40
2022-08-11T15:14:03.467Z,32.40
2022-08-11T15:16:49.762Z,32.38
2022-08-11T15:19:19.761Z,32.39
2022-08-11T15:22:06.255Z,32.36
2022-08-11T15:24:36.274Z,32.07
2022-08-11T15:27:24.047Z,31.74
2022-08-11T15:30:32.023Z,31.80
2022-08-11T15:33:21.191Z,31.76
2022-08-11T15:36:06.094Z,31.76
2022-08-11T15:38:36.328Z,31.64
2022-08-11T15:41:24.122Z,31.42
2022-08-11T15:44:13.106Z,31.27
2022-08-11T15:46:59.525Z,31.28
2022-08-11T15:50:11.636Z,31.38
2022-08-11T15:53:01.560Z,31.44
2022-08-11T15:55:46.614Z,31.45
2022-08-11T15:58:40.772Z,31.49
2022-08-11T16:01:34.037Z,31.28
2022-08-11T16:04:33.352Z,31.28
2022-08-11T16:07:28.072Z,31.33
2022-08-11T16:19:27.733Z,31.55
2022-08-11T16:22:07.105Z,31.59
2022-08-11T16:27:02.912Z,31.59
2022-08-11T16:27:59.787Z,31.57
2022-08-11T16:30:53.988Z,31.50
2022-08-11T16:33:49.798Z,31.48
2022-08-11T16:36:55.710Z,31.47
2022-08-11T16:40:09.041Z,31.44
2022-08-11T16:43:10.778Z,31.33
2022-08-11T16:48:49.858Z,31.31
2022-08-11T16:56:38.604Z,31.29
2022-08-11T16:59:18.163Z,31.27
2022-08-11T17:01:54.894Z,31.14
2022-08-11T17:04:49.169Z,30.98
2022-08-11T17:07:51.338Z,30.88
2022-08-11T17:14:43.500Z,30.63
2022-08-11T17:17:19.551Z,30.63
2022-08-11T17:20:42.135Z,30.61
2022-08-11T17:22:58.403Z,30.59
2022-08-11T17:25:29.450Z,30.58
2022-08-11T17:28:03.149Z,30.53
2022-08-11T17:30:48.038Z,30.46
2022-08-11T17:33:34.811Z,30.42
2022-08-11T17:36:07.227Z,30.35
2022-08-11T17:38:38.116Z,30.31
2022-08-11T17:41:24.943Z,30.27
2022-08-11T17:44:13.886Z,30.22
2022-08-11T17:47:07.967Z,30.18
2022-08-11T17:49:39.447Z,30.14
2022-08-11T17:52:27.099Z,30.11
2022-08-11T17:55:51.169Z,30.05
2022-08-11T17:58:36.093Z,29.97
2022-08-11T18:01:12.462Z,29.92
2022-08-11T18:03:53.017Z,29.87
2022-08-11T18:06:34.684Z,29.83
2022-08-11T18:09:23.877Z,29.77
2022-08-11T18:12:13.190Z,29.72
2022-08-11T18:15:04.455Z,29.67
2022-08-11T18:17:51.484Z,29.61
2022-08-11T18:20:38.575Z,29.54
2022-08-11T18:23:41.793Z,29.46
2022-08-11T18:26:37.985Z,29.36
2022-08-11T18:29:26.074Z,29.30
2022-08-11T18:32:21.104Z,29.20
2022-08-11T18:35:10.874Z,29.14
2022-08-11T18:38:03.959Z,29.04
2022-08-11T18:40:50.155Z,28.97
2022-08-11T18:43:38.190Z,28.90
2022-08-11T18:46:26.068Z,28.81
2022-08-11T18:49:16.319Z,28.73
2022-08-11T18:52:05.710Z,28.66
2022-08-11T18:54:55.421Z,28.58
2022-08-11T18:57:49.851Z,28.52
2022-08-11T19:00:41.819Z,28.43
2022-08-11T19:03:29.898Z,28.35
2022-08-11T19:06:39.882Z,28.28
2022-08-11T19:09:27.397Z,28.20
2022-08-11T19:12:15.347Z,28.16
2022-08-11T19:15:02.962Z,28.11
2022-08-11T19:17:51.237Z,28.04
2022-08-11T19:20:39.232Z,27.97
2022-08-11T19:23:27.259Z,27.89
2022-08-11T19:26:13.310Z,27.84
2022-08-11T19:29:02.574Z,27.76
2022-08-11T19:31:48.973Z,27.66
2022-08-11T19:34:37.346Z,27.58
2022-08-11T19:37:25.439Z,27.49
2022-08-11T19:40:12.379Z,27.41
2022-08-11T19:42:59.677Z,27.34
2022-08-11T19:45:52.197Z,27.26
2022-08-11T19:48:40.226Z,27.17
2022-08-11T19:51:27.441Z,27.10
2022-08-11T19:54:13.983Z,27.02
2022-08-11T19:57:01.416Z,26.95
2022-08-11T19:59:49.458Z,26.87
2022-08-11T20:02:37.276Z,26.80
2022-08-11T20:05:25.117Z,26.75
2022-08-11T20:08:15.200Z,26.69
2022-08-11T20:11:03.235Z,26.59
2022-08-11T20:13:50.249Z,26.52
2022-08-11T20:16:39.008Z,26.46
2022-08-11T20:19:54.408Z,26.37
2022-08-11T20:22:34.846Z,26.27
2022-08-11T20:25:22.919Z,26.21
2022-08-11T20:28:12.191Z,26.12
2022-08-11T20:30:58.974Z,26.04
2022-08-11T20:33:44.667Z,25.95
2022-08-11T20:36:33.290Z,25.85
2022-08-11T20:39:20.324Z,25.79
2022-08-11T20:42:07.296Z,25.74
2022-08-11T20:44:55.499Z,25.68
2022-08-11T20:47:59.102Z,25.64
2022-08-11T20:50:46.992Z,25.57
2022-08-11T20:53:39.296Z,25.50
2022-08-11T20:56:28.481Z,25.43
2022-08-11T20:59:17.840Z,25.36
2022-08-11T21:02:09.726Z,25.29
2022-08-11T21:04:57.244Z,25.20
2022-08-11T21:07:50.287Z,25.15
2022-08-11T21:10:47.141Z,25.08
2022-08-11T21:13:36.977Z,25.02
2022-08-11T21:16:26.128Z,24.99
2022-08-11T21:19:16.322Z,24.95
2022-08-11T21:22:03.812Z,24.91
2022-08-11T21:24:52.014Z,24.88
2022-08-11T21:27:40.144Z,24.84
2022-08-11T21:30:26.789Z,24.81
2022-08-11T21:33:13.658Z,24.79
2022-08-11T21:36:01.283Z,24.74
2022-08-11T21:38:48.901Z,24.71
2022-08-11T21:41:35.219Z,24.67
2022-08-11T21:44:24.936Z,24.65
2022-08-11T21:47:12.510Z,24.60
2022-08-11T21:49:59.416Z,24.56
2022-08-11T21:52:46.275Z,24.52
2022-08-11T21:55:33.397Z,24.49
2022-08-11T21:58:19.791Z,24.45
2022-08-11T22:01:07.295Z,24.44
2022-08-11T22:03:53.395Z,24.42
2022-08-11T22:06:39.802Z,24.38
2022-08-11T22:09:26.529Z,24.33
2022-08-11T22:12:34.539Z,24.28
2022-08-11T22:15:18.837Z,24.24
2022-08-11T22:18:05.743Z,24.21
2022-08-11T22:20:52.468Z,24.15
2022-08-11T22:23:40.295Z,24.09
2022-08-11T22:26:26.309Z,24.05
2022-08-11T22:29:12.336Z,24.00
2022-08-11T22:31:59.570Z,23.96
2022-08-11T22:34:53.494Z,23.90
2022-08-11T22:37:41.668Z,23.85
2022-08-11T22:40:29.486Z,23.79
2022-08-11T22:43:15.704Z,23.75
2022-08-11T22:46:01.367Z,23.71
2022-08-11T22:48:49.160Z,23.67
2022-08-11T22:51:38.408Z,23.62
2022-08-11T22:54:24.699Z,23.55
2022-08-11T22:57:10.394Z,23.52
2022-08-11T22:59:57.872Z,23.45
2022-08-11T23:02:45.971Z,23.40
2022-08-11T23:05:33.409Z,23.35
2022-08-11T23:08:20.977Z,23.31
2022-08-11T23:11:09.092Z,23.29
2022-08-11T23:13:58.920Z,23.24
2022-08-11T23:16:50.499Z,23.19
2022-08-11T23:20:06.449Z,23.16
2022-08-11T23:22:49.893Z,23.12
2022-08-11T23:25:38.084Z,23.07
2022-08-11T23:28:24.623Z,23.05
2022-08-11T23:31:14.082Z,23.02
2022-08-11T23:34:03.515Z,22.99
2022-08-11T23:36:57.601Z,22.96
2022-08-11T23:39:48.145Z,22.92
2022-08-11T23:42:36.176Z,22.91
2022-08-11T23:45:22.878Z,22.87
2022-08-11T23:48:09.628Z,22.82
2022-08-11T23:50:55.253Z,22.78
2022-08-11T23:53:40.744Z,22.76
2022-08-11T23:56:26.379Z,22.70
2022-08-11T23:59:16.929Z,22.64
